createdAt,value
2023-03-19T04:27:32.581Z,5.99
2023-03-19T04:30:05.076Z,5.96
2023-03-19T04:32:35.603Z,5.92
2023-03-19T04:35:06.362Z,5.89
2023-03-19T04:37:36.065Z,5.90
2023-03-19T04:40:08.188Z,6.01
2023-03-19T04:42:39.720Z,5.98
2023-03-19T04:45:15.454Z,6.07
2023-03-19T04:47:45.297Z,6.06
2023-03-19T04:50:15.004Z,6.03
2023-03-19T04:52:45.805Z,6.13
2023-03-19T04:55:15.424Z,6.13
2023-03-19T04:57:52.767Z,6.09
2023-03-19T05:00:27.108Z,5.99
2023-03-19T05:02:56.686Z,5.99
2023-03-19T05:05:26.889Z,6.00
2023-03-19T05:07:57.440Z,6.04
2023-03-19T05:10:27.787Z,6.05
2023-03-19T05:12:57.293Z,6.13
2023-03-19T05:15:28.620Z,6.24
2023-03-19T05:18:05.373Z,6.32
2023-03-19T05:20:40.537Z,6.49
2023-03-19T05:23:18.895Z,6.76
2023-03-19T05:25:59.771Z,6.98
2023-03-19T05:28:49.335Z,6.98
2023-03-19T05:31:24.722Z,6.99
2023-03-19T05:33:56.573Z,6.97
2023-03-19T05:36:26.415Z,6.94
2023-03-19T05:39:08.075Z,6.88
2023-03-19T05:41:40.118Z,6.85
2023-03-19T05:44:10.231Z,6.80
2023-03-19T05:46:52.246Z,6.77
2023-03-19T05:49:23.198Z,6.78
2023-03-19T05:51:52.753Z,6.82
2023-03-19T05:54:22.273Z,6.82
2023-03-19T05:56:58.645Z,6.84
2023-03-19T05:59:51.124Z,6.86
2023-03-19T06:02:51.645Z,6.88
2023-03-19T06:05:33.459Z,6.93
2023-03-19T06:08:12.080Z,6.97
2023-03-19T06:11:00.613Z,7.04
2023-03-19T06:13:31.014Z,7.23
2023-03-19T06:16:09.472Z,7.35
2023-03-19T06:18:45.682Z,7.39
2023-03-19T06:21:18.086Z,7.56
2023-03-19T06:23:47.806Z,7.60
2023-03-19T06:26:21.442Z,7.65
2023-03-19T06:28:57.555Z,7.75
2023-03-19T06:31:28.849Z,7.81
2023-03-19T06:34:08.639Z,7.94
2023-03-19T06:36:44.523Z,8.01
2023-03-19T06:39:16.641Z,8.13
2023-03-19T06:41:47.179Z,8.07
2023-03-19T06:44:21.660Z,8.14
2023-03-19T06:46:51.626Z,8.18
2023-03-19T06:49:23.127Z,8.26
2023-03-19T06:51:53.188Z,8.36
2023-03-19T06:54:24.899Z,8.44
2023-03-19T06:56:55.612Z,8.47
2023-03-19T06:59:25.977Z,8.52
2023-03-19T07:01:56.286Z,8.46
2023-03-19T07:04:28.148Z,8.56
2023-03-19T07:06:58.630Z,8.58
2023-03-19T07:09:29.515Z,8.64
2023-03-19T07:12:00.384Z,8.79
2023-03-19T07:14:30.718Z,8.78
2023-03-19T07:17:00.482Z,8.80
2023-03-19T07:19:31.553Z,8.80
2023-03-19T07:22:01.607Z,8.73
2023-03-19T07:24:31.642Z,8.75
2023-03-19T07:27:03.327Z,8.76
2023-03-19T07:29:33.485Z,8.75
2023-03-19T07:32:03.229Z,8.94
2023-03-19T07:34:34.225Z,9.01
2023-03-19T07:37:04.164Z,9.00
2023-03-19T07:39:34.181Z,9.07
2023-03-19T07:42:03.751Z,8.99
2023-03-19T07:44:33.513Z,8.95
2023-03-19T07:47:03.380Z,8.95
2023-03-19T07:49:34.394Z,8.97
2023-03-19T07:52:03.994Z,9.07
2023-03-19T07:54:33.592Z,9.05
2023-03-19T07:57:03.249Z,9.06
2023-03-19T07:59:36.797Z,8.94
2023-03-19T08:02:07.127Z,8.97
2023-03-19T08:04:38.681Z,8.96
2023-03-19T08:07:10.782Z,8.87
2023-03-19T08:09:41.442Z,8.98
2023-03-19T08:12:12.074Z,9.01
2023-03-19T08:14:41.736Z,8.91
2023-03-19T08:17:11.507Z,8.95
2023-03-19T08:19:42.522Z,8.96
2023-03-19T08:22:12.824Z,8.91
2023-03-19T08:24:42.474Z,8.90
2023-03-19T08:27:12.092Z,8.85
2023-03-19T08:29:41.938Z,8.91
2023-03-19T08:32:11.961Z,8.94
2023-03-19T08:35:08.730Z,9.03
2023-03-19T08:37:39.769Z,8.98
2023-03-19T08:40:11.980Z,9.07
2023-03-19T08:42:45.088Z,9.03
2023-03-19T08:45:17.390Z,9.15
2023-03-19T08:47:47.314Z,9.06
2023-03-19T08:50:20.048Z,9.11
2023-03-19T08:52:49.829Z,9.01
2023-03-19T08:55:21.038Z,9.00
2023-03-19T08:57:50.870Z,9.03
2023-03-19T09:00:21.812Z,9.03
2023-03-19T09:02:51.452Z,9.07
2023-03-19T09:05:23.326Z,9.08
2023-03-19T09:07:53.362Z,9.03
2023-03-19T09:10:23.029Z,9.09
2023-03-19T09:12:52.679Z,9.06
2023-03-19T09:15:22.704Z,9.06
2023-03-19T09:17:53.037Z,9.04
2023-03-19T09:20:24.848Z,8.98
2023-03-19T09:22:55.077Z,9.03
2023-03-19T09:25:24.596Z,9.06
2023-03-19T09:27:54.156Z,9.09
2023-03-19T09:30:23.791Z,9.07
2023-03-19T09:32:53.272Z,9.09
2023-03-19T09:35:24.971Z,9.22
2023-03-19T09:37:54.470Z,9.32
2023-03-19T09:40:29.527Z,9.47
2023-03-19T09:43:22.530Z,9.59
2023-03-19T09:45:52.656Z,9.63
2023-03-19T09:48:35.944Z,9.72
2023-03-19T09:51:16.612Z,9.74
2023-03-19T09:53:54.034Z,9.84
2023-03-19T09:56:25.790Z,9.94
2023-03-19T09:58:55.879Z,10.05
2023-03-19T10:01:31.624Z,10.23
2023-03-19T10:04:40.853Z,10.33
2023-03-19T10:07:28.856Z,10.50
2023-03-19T10:10:23.212Z,10.69
2023-03-19T10:13:08.886Z,10.79
2023-03-19T10:15:39.475Z,11.04
2023-03-19T10:18:14.075Z,11.07
2023-03-19T10:20:54.361Z,11.10
2023-03-19T10:23:48.254Z,11.11
2023-03-19T10:26:21.984Z,11.16
2023-03-19T10:29:05.421Z,11.19
2023-03-19T10:31:46.288Z,11.25
2023-03-19T10:34:32.660Z,11.30
2023-03-19T10:37:06.672Z,11.33
2023-03-19T10:39:39.257Z,11.31
2023-03-19T10:42:33.293Z,11.37
2023-03-19T10:45:15.413Z,11.42
2023-03-19T10:47:46.349Z,11.52
2023-03-19T10:50:20.627Z,11.67
2023-03-19T10:52:59.894Z,11.83
2023-03-19T10:55:33.305Z,11.97
2023-03-19T10:58:17.512Z,12.16
2023-03-19T11:00:50.004Z,12.30
2023-03-19T11:03:34.235Z,12.46
2023-03-19T11:06:18.489Z,12.59
2023-03-19T11:08:58.162Z,12.66
2023-03-19T11:11:36.973Z,12.64
2023-03-19T11:14:16.125Z,12.69
2023-03-19T11:16:58.504Z,12.73
2023-03-19T11:19:32.676Z,12.79
2023-03-19T11:22:21.065Z,12.93
2023-03-19T11:24:58.572Z,13.03
2023-03-19T11:27:34.892Z,13.17
2023-03-19T11:30:15.920Z,13.25
2023-03-19T11:33:27.313Z,13.43
2023-03-19T11:36:12.959Z,13.46
2023-03-19T11:39:01.726Z,13.58
2023-03-19T11:41:50.746Z,13.57
2023-03-19T11:44:27.849Z,13.69
2023-03-19T11:47:14.976Z,13.79
2023-03-19T11:50:18.514Z,13.85
2023-03-19T11:53:07.017Z,13.95
2023-03-19T11:55:43.449Z,14.01
2023-03-19T11:58:59.679Z,14.00
2023-03-19T12:02:18.758Z,13.99
2023-03-19T12:05:05.503Z,13.88
2023-03-19T12:07:50.788Z,13.82
2023-03-19T12:10:53.805Z,13.84
2023-03-19T12:13:50.351Z,13.89
2023-03-19T12:16:30.534Z,13.86
2023-03-19T12:19:38.842Z,13.82
2023-03-19T12:22:26.783Z,13.83
2023-03-19T12:25:26.470Z,13.80
2023-03-19T12:28:03.423Z,13.79
2023-03-19T12:30:41.272Z,13.75
2023-03-19T12:33:30.342Z,13.69
2023-03-19T12:36:04.693Z,13.61
2023-03-19T12:38:41.527Z,13.48
2023-03-19T12:41:18.004Z,13.38
2023-03-19T12:43:58.443Z,13.29
2023-03-19T12:46:34.053Z,13.22
2023-03-19T12:49:14.573Z,13.17
2023-03-19T12:51:54.166Z,13.09
2023-03-19T12:54:29.738Z,13.07
2023-03-19T12:57:07.386Z,13.07
2023-03-19T12:59:45.361Z,13.11
2023-03-19T13:02:26.596Z,13.23
2023-03-19T13:05:01.628Z,13.35
2023-03-19T13:07:43.638Z,13.61
2023-03-19T13:10:19.917Z,14.10
2023-03-19T13:12:53.254Z,14.49
2023-03-19T13:15:31.901Z,14.97
2023-03-19T13:18:18.376Z,15.61
2023-03-19T13:21:11.713Z,16.16
2023-03-19T13:23:45.476Z,16.69
2023-03-19T13:26:16.842Z,16.96
2023-03-19T13:29:02.814Z,17.34
2023-03-19T13:31:37.506Z,17.68
2023-03-19T13:34:22.292Z,17.54
2023-03-19T13:37:02.263Z,17.36
2023-03-19T13:39:36.166Z,17.14
2023-03-19T13:42:37.906Z,16.56
2023-03-19T13:45:35.974Z,16.54
2023-03-19T13:48:37.110Z,17.14
2023-03-19T13:51:27.064Z,17.89
2023-03-19T13:54:08.349Z,18.40
2023-03-19T13:57:22.578Z,18.71
2023-03-19T13:59:52.939Z,18.78
2023-03-19T14:02:54.471Z,18.81
2023-03-19T14:05:24.291Z,18.70
2023-03-19T14:07:56.686Z,18.34
2023-03-19T14:10:29.558Z,17.87
2023-03-19T14:13:20.114Z,17.30
2023-03-19T14:15:52.554Z,16.72
2023-03-19T14:18:25.256Z,16.42
2023-03-19T14:21:08.854Z,16.33
2023-03-19T14:23:46.741Z,16.54
2023-03-19T14:26:20.581Z,16.88
2023-03-19T14:29:03.587Z,17.37
2023-03-19T14:31:43.973Z,17.89
2023-03-19T14:34:25.786Z,17.96
2023-03-19T14:37:03.327Z,17.94
2023-03-19T14:39:40.843Z,17.63
2023-03-19T14:42:21.568Z,17.29
2023-03-19T14:45:34.623Z,17.07
2023-03-19T14:48:36.975Z,16.85
2023-03-19T14:52:04.605Z,16.81
2023-03-19T14:54:43.221Z,16.86
2023-03-19T14:59:51.245Z,16.64
2023-03-19T15:02:37.166Z,16.24
2023-03-19T15:05:10.649Z,16.00
2023-03-19T15:07:47.638Z,15.78
2023-03-19T15:10:21.668Z,15.71
2023-03-19T15:13:30.064Z,15.78
2023-03-19T15:16:32.204Z,15.74
2023-03-19T15:19:04.645Z,15.87
2023-03-19T15:21:35.593Z,16.04
2023-03-19T15:24:14.934Z,16.17
2023-03-19T15:26:47.256Z,16.28
2023-03-19T15:29:18.987Z,16.35
2023-03-19T15:32:02.412Z,16.30
2023-03-19T15:34:37.335Z,16.20
2023-03-19T15:37:14.192Z,16.03
2023-03-19T15:39:51.694Z,15.92
2023-03-19T15:42:24.676Z,15.70
2023-03-19T15:44:59.984Z,15.55
2023-03-19T15:47:35.040Z,15.45
2023-03-19T15:50:13.350Z,15.32
2023-03-19T15:52:48.704Z,15.19
2023-03-19T15:55:21.263Z,15.06
2023-03-19T15:57:51.230Z,14.92
2023-03-19T16:00:22.032Z,14.82
2023-03-19T16:02:54.020Z,14.68
2023-03-19T16:05:32.065Z,14.59
2023-03-19T16:08:04.257Z,14.45
2023-03-19T16:10:41.070Z,14.33
2023-03-19T16:13:31.822Z,14.20
2023-03-19T16:16:08.074Z,14.11
2023-03-19T16:18:50.633Z,14.02
2023-03-19T16:21:25.363Z,13.90
2023-03-19T16:24:01.340Z,13.82
2023-03-19T16:26:39.980Z,13.74
2023-03-19T16:29:22.285Z,13.66
2023-03-19T16:31:55.329Z,13.61
2023-03-19T16:34:32.293Z,13.54
2023-03-19T16:37:04.270Z,13.47
2023-03-19T16:39:37.572Z,13.40
2023-03-19T16:42:31.939Z,13.31
2023-03-19T16:45:19.442Z,13.21
2023-03-19T16:47:57.413Z,13.10
2023-03-19T16:50:33.170Z,13.05
2023-03-19T16:53:08.170Z,12.99
2023-03-19T16:55:38.741Z,12.90
2023-03-19T16:58:16.824Z,12.82
2023-03-19T17:00:48.320Z,12.74
2023-03-19T17:03:19.984Z,12.66
2023-03-19T17:05:50.090Z,12.58
2023-03-19T17:08:21.853Z,12.49
2023-03-19T17:10:54.597Z,12.39
2023-03-19T17:13:28.197Z,12.29
2023-03-19T17:16:02.140Z,12.18
2023-03-19T17:18:36.536Z,12.03
2023-03-19T17:21:12.539Z,11.90
2023-03-19T17:23:46.848Z,11.76
2023-03-19T17:26:21.172Z,11.63
2023-03-19T17:28:53.697Z,11.53
2023-03-19T17:31:28.797Z,11.42
2023-03-19T17:34:07.925Z,11.32
2023-03-19T17:36:37.831Z,11.25
2023-03-19T17:39:12.764Z,11.15
2023-03-19T17:41:42.972Z,11.08
2023-03-19T17:44:13.575Z,11.04
2023-03-19T17:46:48.544Z,11.00
2023-03-19T17:49:24.646Z,10.98
2023-03-19T17:51:54.572Z,10.94
2023-03-19T17:54:27.017Z,10.87
2023-03-19T17:56:57.627Z,10.82
2023-03-19T17:59:27.383Z,10.76
2023-03-19T18:01:57.254Z,10.73
2023-03-19T18:04:27.141Z,10.68
2023-03-19T18:06:58.830Z,10.62
2023-03-19T18:09:56.116Z,10.50
2023-03-19T18:12:28.560Z,10.44
2023-03-19T18:15:25.102Z,10.36
2023-03-19T18:18:00.358Z,10.31
2023-03-19T18:20:36.379Z,10.25
2023-03-19T18:23:07.373Z,10.15
2023-03-19T18:25:42.503Z,10.09
2023-03-19T18:28:12.412Z,10.03
2023-03-19T18:30:44.857Z,9.96
2023-03-19T18:33:21.652Z,9.91
2023-03-19T18:35:53.736Z,9.85
2023-03-19T18:38:27.056Z,9.79
2023-03-19T18:40:58.877Z,9.76
2023-03-19T18:43:29.292Z,9.72
2023-03-19T18:45:59.661Z,9.74
2023-03-19T18:48:33.000Z,9.90
2023-03-19T18:51:03.505Z,9.77
2023-03-19T18:53:34.594Z,9.91
2023-03-19T18:56:24.739Z,10.08
2023-03-19T19:00:20.131Z,10.17
2023-03-19T19:02:55.247Z,10.15
2023-03-19T19:05:30.998Z,10.26
2023-03-19T19:08:04.290Z,10.26
2023-03-19T19:10:37.430Z,10.25
2023-03-19T19:13:16.703Z,10.15
2023-03-19T19:15:48.171Z,10.10
2023-03-19T19:18:22.551Z,10.03
2023-03-19T19:20:55.168Z,10.02
2023-03-19T19:23:27.365Z,9.92
2023-03-19T19:25:58.347Z,9.87
2023-03-19T19:28:34.435Z,9.87
2023-03-19T19:31:05.603Z,9.85
2023-03-19T19:33:37.218Z,9.89
2023-03-19T19:36:09.237Z,9.81
2023-03-19T19:38:38.853Z,9.77
2023-03-19T19:41:13.835Z,9.58
2023-03-19T19:43:47.298Z,9.55
2023-03-19T19:46:20.356Z,9.44
2023-03-19T19:48:50.114Z,9.40
2023-03-19T19:51:23.336Z,9.26
2023-03-19T19:53:53.145Z,9.21
2023-03-19T19:56:25.715Z,9.14
2023-03-19T19:58:57.466Z,9.07
2023-03-19T20:01:27.834Z,8.95
2023-03-19T20:03:58.350Z,8.92
2023-03-19T20:06:28.037Z,8.88
2023-03-19T20:08:57.517Z,8.88
2023-03-19T20:11:27.782Z,8.86
2023-03-19T20:13:58.731Z,8.87
2023-03-19T20:16:28.812Z,8.94
2023-03-19T20:18:58.302Z,8.89
2023-03-19T20:21:29.402Z,8.82
2023-03-19T20:23:58.892Z,8.80
2023-03-19T20:26:30.711Z,8.84
2023-03-19T20:29:01.670Z,8.77
2023-03-19T20:31:32.843Z,8.76
2023-03-19T20:34:02.280Z,8.69
2023-03-19T20:36:31.697Z,8.72
2023-03-19T20:39:01.134Z,8.74
2023-03-19T20:41:30.616Z,8.69
2023-03-19T20:44:04.540Z,8.66
2023-03-19T20:46:34.023Z,8.58
2023-03-19T20:49:03.887Z,8.55
2023-03-19T20:51:34.124Z,8.52
2023-03-19T20:54:05.390Z,8.55
2023-03-19T20:56:38.379Z,8.54
2023-03-19T20:59:12.599Z,8.53
2023-03-19T21:01:42.027Z,8.50
2023-03-19T21:04:19.484Z,8.39
2023-03-19T21:06:53.376Z,8.37
2023-03-19T21:09:25.849Z,8.27
2023-03-19T21:11:55.276Z,8.34
2023-03-19T21:14:27.004Z,8.33
2023-03-19T21:16:56.429Z,8.26
2023-03-19T21:19:25.891Z,8.29
2023-03-19T21:21:55.584Z,8.30
2023-03-19T21:24:26.148Z,8.28
2023-03-19T21:26:56.877Z,8.28
2023-03-19T21:29:33.393Z,8.28
2023-03-19T21:32:02.850Z,8.21
2023-03-19T21:34:32.220Z,8.18
2023-03-19T21:37:01.600Z,8.17
2023-03-19T21:39:31.300Z,8.16
2023-03-19T21:42:02.316Z,8.12
2023-03-19T21:44:33.720Z,8.13
2023-03-19T21:47:03.539Z,8.18
2023-03-19T21:49:34.010Z,8.19
2023-03-19T21:52:04.695Z,8.16
2023-03-19T21:54:34.882Z,8.19
2023-03-19T21:57:04.535Z,8.20
2023-03-19T21:59:35.760Z,8.16
2023-03-19T22:02:16.976Z,8.13
2023-03-19T22:04:46.441Z,8.09
2023-03-19T22:07:17.957Z,8.07
2023-03-19T22:09:47.417Z,8.03
2023-03-19T22:12:27.373Z,8.03
2023-03-19T22:14:58.728Z,8.02
2023-03-19T22:17:29.122Z,8.04
2023-03-19T22:19:59.101Z,8.05
2023-03-19T22:22:29.035Z,8.09
2023-03-19T22:25:00.302Z,8.19
2023-03-19T22:27:29.780Z,8.20
2023-03-19T22:30:02.861Z,8.22
2023-03-19T22:32:32.492Z,8.18
2023-03-19T22:35:04.510Z,8.15
2023-03-19T22:37:34.310Z,8.13
2023-03-19T22:40:03.814Z,8.10
2023-03-19T22:42:33.397Z,8.08
2023-03-19T22:45:04.603Z,8.00
2023-03-19T22:47:39.216Z,8.01
2023-03-19T22:50:19.267Z,8.01
2023-03-19T22:52:48.906Z,8.09
2023-03-19T22:55:18.772Z,8.18
2023-03-19T22:57:49.278Z,8.20
2023-03-19T23:00:25.967Z,8.17
2023-03-19T23:02:58.687Z,8.22
2023-03-19T23:05:34.525Z,8.26
2023-03-19T23:08:06.343Z,8.23
2023-03-19T23:10:36.285Z,8.28
2023-03-19T23:13:06.160Z,8.26
2023-03-19T23:15:37.670Z,8.20
2023-03-19T23:18:19.218Z,8.19
2023-03-19T23:20:49.152Z,8.15
2023-03-19T23:23:18.959Z,8.15
2023-03-19T23:25:48.957Z,8.16
2023-03-19T23:28:23.973Z,8.11
2023-03-19T23:30:54.751Z,8.08
2023-03-19T23:33:26.864Z,8.01
2023-03-19T23:35:56.587Z,8.02
2023-03-19T23:38:26.086Z,7.97
2023-03-19T23:40:56.690Z,7.97
2023-03-19T23:43:29.453Z,8.03
2023-03-19T23:46:01.041Z,7.96
2023-03-19T23:48:38.489Z,8.02
2023-03-19T23:51:11.806Z,7.98
2023-03-19T23:53:42.012Z,8.00
2023-03-19T23:56:20.664Z,7.99
2023-03-19T23:58:53.027Z,7.98
